Time;durP1;ratioP1;P1;durP2;ratioP2;P2;SDS_P1;SDS_P2;PMS_P1;PMS_P2;Temp;Humidity;BMP_temperature;BMP_pressure;BME280_temperature;BME280_humidity;BME280_pressure;Samples;Min_cycle;Max_cycle;Signal;HPM_P1;HPM_P2
2021/03/24 00:02:18;;;;;;;3.08;2.65;;;9.60;70.50;;;;;;5043359;28;20041;-52
2021/03/24 00:04:49;;;;;;;5.65;2.15;;;9.60;70.40;;;;;;5059430;28;20055;-50
2021/03/24 00:07:16;;;;;;;5.07;2.28;;;9.60;70.20;;;;;;5042782;28;20058;-54
2021/03/24 00:09:43;;;;;;;4.53;2.03;;;9.60;69.70;;;;;;5076887;28;20048;-50
2021/03/24 00:12:11;;;;;;;6.07;1.95;;;9.60;69.90;;;;;;5077170;28;20056;-53
2021/03/24 00:14:41;;;;;;;5.95;2.33;;;9.70;68.40;;;;;;5059152;28;20043;-55
2021/03/24 00:17:08;;;;;;;2.83;1.80;;;9.70;68.40;;;;;;5059427;28;20489;-53
2021/03/24 00:19:36;;;;;;;4.53;2.10;;;9.70;69.00;;;;;;5076944;28;20135;-49
2021/03/24 00:22:09;;;;;;;3.13;1.75;;;9.70;69.60;;;;;;5042377;28;20045;-53
2021/03/24 00:24:37;;;;;;;3.33;2.08;;;9.70;70.50;;;;;;5058034;28;20052;-51
2021/03/24 00:27:07;;;;;;;3.72;2.00;;;9.70;71.10;;;;;;5058816;28;20051;-53
2021/03/24 00:29:35;;;;;;;3.25;2.28;;;9.70;70.60;;;;;;5042372;28;20068;-54
2021/03/24 00:32:03;;;;;;;3.45;2.03;;;9.70;70.70;;;;;;5076696;28;20052;-54
2021/03/24 00:34:33;;;;;;;3.40;2.25;;;9.70;70.70;;;;;;5042388;28;20048;-53
2021/03/24 00:37:05;;;;;;;4.10;2.28;;;9.60;70.50;;;;;;5058683;28;20505;-50
2021/03/24 00:39:33;;;;;;;3.35;2.33;;;9.70;70.70;;;;;;5057473;28;20053;-54
2021/03/24 00:42:03;;;;;;;2.85;1.85;;;9.70;71.20;;;;;;5058709;28;20041;-52
2021/03/24 00:44:34;;;;;;;4.10;2.15;;;9.70;71.30;;;;;;5042227;28;20044;-53
2021/03/24 00:47:06;;;;;;;4.03;1.92;;;9.60;71.50;;;;;;5075555;28;20060;-51
2021/03/24 00:49:40;;;;;;;4.43;2.45;;;9.70;71.70;;;;;;5041644;28;20509;-50
2021/03/24 00:52:10;;;;;;;3.85;2.10;;;9.70;72.10;;;;;;5041755;28;20051;-53
2021/03/24 00:54:38;;;;;;;4.72;2.05;;;9.70;71.90;;;;;;5058523;28;20368;-53
2021/03/24 00:57:08;;;;;;;4.28;2.28;;;9.60;71.70;;;;;;5041671;28;20453;-54
2021/03/24 00:59:36;;;;;;;3.50;2.42;;;9.60;71.90;;;;;;5058456;28;20055;-55
2021/03/24 01:02:03;;;;;;;5.53;2.03;;;9.60;72.00;;;;;;5058262;28;20048;-50
2021/03/24 01:04:31;;;;;;;4.00;2.38;;;9.60;72.50;;;;;;5041696;28;20044;-51
2021/03/24 01:06:59;;;;;;;3.28;2.08;;;9.60;72.90;;;;;;5075938;28;20090;-50
2021/03/24 01:09:30;;;;;;;3.60;2.35;;;9.60;73.30;;;;;;5024964;28;20106;-54
2021/03/24 01:12:03;;;;;;;3.55;2.50;;;9.60;73.60;;;;;;5058456;28;20067;-51
2021/03/24 01:14:34;;;;;;;3.97;2.30;;;9.60;74.40;;;;;;5057920;28;20045;-52
2021/03/24 01:17:05;;;;;;;2.58;1.73;;;9.60;74.20;;;;;;5041754;28;20052;-51
2021/03/24 01:19:32;;;;;;;4.00;2.70;;;9.60;74.70;;;;;;5074568;28;20080;-51
2021/03/24 01:22:05;;;;;;;4.85;2.00;;;9.60;74.90;;;;;;5058228;28;20495;-53
2021/03/24 01:24:32;;;;;;;3.00;1.92;;;9.60;75.30;;;;;;5057939;28;20048;-53
2021/03/24 01:27:00;;;;;;;4.15;2.22;;;9.60;75.60;;;;;;5057941;28;20456;-51
2021/03/24 01:29:27;;;;;;;4.65;2.17;;;9.50;75.70;;;;;;5057893;28;20049;-53
2021/03/24 01:31:54;;;;;;;2.67;1.95;;;9.60;75.80;;;;;;5057894;28;20048;-53
2021/03/24 01:34:22;;;;;;;5.10;2.15;;;9.50;76.00;;;;;;5057692;28;20049;-52
2021/03/24 01:36:49;;;;;;;4.25;2.00;;;9.50;76.40;;;;;;5057708;28;20048;-52
2021/03/24 01:39:19;;;;;;;4.25;2.47;;;9.50;76.70;;;;;;5041506;28;20052;-54
2021/03/24 01:41:53;;;;;;;2.63;1.90;;;9.50;76.70;;;;;;5041993;28;20055;-51
2021/03/24 01:44:21;;;;;;;3.90;2.33;;;9.50;77.10;;;;;;5057634;28;20056;-54
2021/03/24 01:46:48;;;;;;;4.35;2.20;;;9.50;77.40;;;;;;5057780;28;20487;-52
2021/03/24 01:49:20;;;;;;;3.10;2.00;;;9.50;77.40;;;;;;5075311;28;20113;-52
2021/03/24 01:51:58;;;;;;;5.72;2.38;;;9.50;77.80;;;;;;5024564;28;20044;-53
2021/03/24 01:54:36;;;;;;;4.20;2.95;;;9.50;77.90;;;;;;5040708;28;20068;-52
2021/03/24 01:57:11;;;;;;;4.30;2.45;;;9.50;78.20;;;;;;5074913;28;20041;-52
2021/03/24 01:59:38;;;;;;;3.30;2.33;;;9.40;78.30;;;;;;5057235;28;20048;-53
2021/03/24 02:02:17;;;;;;;3.33;1.80;;;9.40;78.60;;;;;;5040672;28;20044;-54
2021/03/24 02:04:49;;;;;;;5.05;2.35;;;9.40;78.80;;;;;;5057185;28;20041;-50
2021/03/24 02:07:47;;;;;;;4.20;2.70;;;9.40;79.10;;;;;;5057127;28;20044;-51
2021/03/24 02:10:22;;;;;;;4.78;2.85;;;9.40;79.30;;;;;;5074704;28;20075;-54
2021/03/24 02:13:11;;;;;;;5.57;2.40;;;9.40;79.60;;;;;;5040524;28;20049;-52
2021/03/24 02:15:48;;;;;;;5.38;2.58;;;9.40;79.70;;;;;;5074659;28;20045;-53
2021/03/24 02:18:20;;;;;;;4.03;2.20;;;9.30;79.70;;;;;;5056889;28;20091;-52
2021/03/24 02:20:56;;;;;;;3.63;2.13;;;9.30;80.20;;;;;;5039784;28;20044;-53
2021/03/24 02:23:48;;;;;;;3.00;2.20;;;9.30;80.20;;;;;;5041448;28;20608;-51
2021/03/24 02:26:51;;;;;;;3.67;2.13;;;9.30;80.70;;;;;;5057945;28;20055;-55
2021/03/24 02:29:21;;;;;;;;;;;9.30;81.00;;;;;;5057261;28;20506;-49
2021/03/24 02:31:50;;;;;;;3.15;2.00;;;9.30;81.20;;;;;;5056847;28;19964;-51
2021/03/24 02:34:23;;;;;;;5.18;2.53;;;9.20;81.00;;;;;;5039462;28;20052;-52
2021/03/24 02:36:53;;;;;;;4.25;2.80;;;9.20;81.30;;;;;;5074238;28;20093;-52
2021/03/24 02:39:24;;;;;;;4.82;2.90;;;9.20;81.40;;;;;;5056524;28;20147;-53
2021/03/24 02:41:56;;;;;;;3.55;1.90;;;9.20;81.60;;;;;;5056345;28;20052;-52
2021/03/24 02:44:25;;;;;;;3.85;2.00;;;9.20;81.80;;;;;;5074193;28;20423;-55
2021/03/24 02:46:53;;;;;;;4.65;2.28;;;9.10;81.60;;;;;;5039880;28;20044;-53
2021/03/24 02:49:22;;;;;;;3.22;2.42;;;9.10;81.80;;;;;;5056364;28;20499;-51
2021/03/24 02:51:49;;;;;;;3.75;2.28;;;9.10;81.80;;;;;;5039703;28;20110;-53
2021/03/24 02:54:21;;;;;;;3.63;2.13;;;9.10;82.10;;;;;;5073973;28;20388;-54
2021/03/24 02:56:49;;;;;;;3.58;2.60;;;9.10;82.10;;;;;;5056099;28;20052;-50
2021/03/24 02:59:17;;;;;;;5.20;3.22;;;9.00;82.00;;;;;;5072681;28;20050;-52
2021/03/24 03:01:54;;;;;;;3.38;1.98;;;9.10;81.90;;;;;;5039483;28;20131;-50
2021/03/24 03:04:30;;;;;;;4.00;2.22;;;9.00;82.00;;;;;;5056136;28;20075;-53
2021/03/24 03:07:07;;;;;;;4.15;2.83;;;9.00;82.00;;;;;;5039285;28;20528;-52
2021/03/24 03:09:50;;;;;;;3.47;2.22;;;9.00;81.90;;;;;;5054905;28;20055;-50
2021/03/24 03:12:58;;;;;;;3.70;2.10;;;9.00;82.20;;;;;;5073666;28;20060;-51
2021/03/24 03:15:38;;;;;;;2.72;2.00;;;9.00;81.80;;;;;;5073674;28;20075;-52
2021/03/24 03:18:24;;;;;;;4.85;1.95;;;9.00;82.00;;;;;;5055807;28;20511;-49
2021/03/24 03:21:09;;;;;;;2.80;2.22;;;8.90;81.90;;;;;;5055598;28;20460;-49
2021/03/24 03:23:42;;;;;;;4.22;2.20;;;9.00;81.80;;;;;;5055576;28;20048;-49
2021/03/24 03:26:19;;;;;;;4.53;2.17;;;9.00;81.80;;;;;;5039838;28;20502;-50
2021/03/24 03:28:51;;;;;;;4.20;2.40;;;9.00;81.80;;;;;;5055888;28;20167;-52
2021/03/24 03:31:23;;;;;;;3.28;2.25;;;9.00;81.90;;;;;;5022772;28;20075;-53
2021/03/24 03:33:53;;;;;;;3.80;2.30;;;9.00;82.10;;;;;;5028586;28;20582;-50
2021/03/24 03:36:22;;;;;;;4.05;2.50;;;9.00;82.00;;;;;;5035756;28;20072;-52
2021/03/24 03:38:53;;;;;;;3.35;2.50;;;9.00;82.20;;;;;;5019283;28;20163;-51
2021/03/24 03:41:22;;;;;;;4.57;2.20;;;9.00;82.20;;;;;;5053373;28;20068;-49
2021/03/24 03:43:54;;;;;;;3.08;2.45;;;9.00;82.00;;;;;;5035529;28;20049;-54
2021/03/24 03:46:28;;;;;;;3.78;2.25;;;8.90;82.00;;;;;;5035671;28;20480;-51
2021/03/24 03:48:56;;;;;;;4.03;2.20;;;8.90;82.00;;;;;;5035591;28;20056;-54
2021/03/24 03:51:50;;;;;;;4.00;2.20;;;8.90;81.90;;;;;;5035985;28;20056;-54
2021/03/24 03:54:30;;;;;;;3.63;2.33;;;8.90;81.60;;;;;;5018981;28;20049;-50
2021/03/24 03:57:19;;;;;;;4.18;2.50;;;8.90;81.40;;;;;;5035602;28;20083;-53
2021/03/24 04:00:22;;;;;;;5.18;2.25;;;8.90;81.30;;;;;;5035670;28;20130;-51
2021/03/24 04:03:01;;;;;;;4.05;2.88;;;8.90;81.10;;;;;;5011773;28;20144;-52
2021/03/24 04:05:35;;;;;;;4.15;2.15;;;8.90;80.80;;;;;;5031060;28;20483;-49
2021/03/24 04:08:14;;;;;;;3.03;2.10;;;8.90;81.10;;;;;;5036032;28;20072;-50
2021/03/24 04:10:47;;;;;;;;;;;9.00;80.90;;;;;;5053441;28;20053;-51
2021/03/24 04:13:23;;;;;;;2.95;2.10;;;9.00;80.70;;;;;;5035662;28;19922;-53
2021/03/24 04:15:59;;;;;;;4.38;2.08;;;9.10;80.70;;;;;;5053090;28;20084;-53
2021/03/24 04:18:35;;;;;;;3.58;2.35;;;9.10;80.50;;;;;;5053033;28;20135;-50
2021/03/24 04:21:04;;;;;;;5.57;2.20;;;9.10;80.40;;;;;;5018997;28;20049;-53
2021/03/24 04:23:38;;;;;;;3.70;1.90;;;9.10;80.20;;;;;;5035522;28;20053;-53
2021/03/24 04:26:13;;;;;;;4.33;2.10;;;9.20;80.30;;;;;;5052964;28;20057;-50
2021/03/24 04:28:48;;;;;;;4.15;2.10;;;9.20;80.50;;;;;;5018733;28;20045;-51
2021/03/24 04:31:17;;;;;;;2.40;1.90;;;9.30;80.80;;;;;;5053056;28;20115;-52
2021/03/24 04:33:45;;;;;;;5.43;2.20;;;9.30;80.90;;;;;;5028093;28;20056;-49
2021/03/24 04:36:19;;;;;;;2.60;2.05;;;9.30;80.50;;;;;;5054736;28;20053;-50
2021/03/24 04:38:52;;;;;;;3.13;2.20;;;9.40;80.30;;;;;;5055078;28;20106;-53
2021/03/24 04:41:29;;;;;;;3.95;2.05;;;9.40;80.20;;;;;;5055294;28;20059;-52
2021/03/24 04:44:08;;;;;;;3.58;1.80;;;9.40;80.40;;;;;;5072885;28;20510;-52
2021/03/24 04:46:42;;;;;;;3.17;1.55;;;9.40;80.20;;;;;;5025902;28;20057;-52
2021/03/24 04:49:22;;;;;;;2.95;1.90;;;9.50;79.90;;;;;;5059067;28;20051;-52
2021/03/24 04:51:56;;;;;;;3.58;1.98;;;9.50;80.10;;;;;;5058666;28;20060;-52
2021/03/24 04:54:35;;;;;;;3.22;2.33;;;9.60;80.20;;;;;;5042173;28;20045;-50
2021/03/24 04:57:08;;;;;;;4.97;1.90;;;9.60;80.20;;;;;;5075401;28;20050;-51
2021/03/24 04:59:51;;;;;;;3.42;1.95;;;9.70;80.20;;;;;;5041867;28;20041;-53
2021/03/24 05:02:29;;;;;;;4.68;2.25;;;9.70;80.30;;;;;;5058839;28;20502;-52
2021/03/24 05:05:04;;;;;;;5.15;2.65;;;9.70;82.40;;;;;;5041689;28;20041;-50
2021/03/24 05:07:40;;;;;;;6.23;2.87;;;9.70;84.40;;;;;;5058371;28;20462;-53
2021/03/24 05:10:12;;;;;;;6.47;3.13;;;9.60;84.70;;;;;;5041731;28;20682;-51
2021/03/24 05:12:53;;;;;;;3.15;2.55;;;9.50;85.20;;;;;;5057970;28;20046;-52
2021/03/24 05:15:26;;;;;;;4.20;3.17;;;9.40;85.70;;;;;;5057254;28;20059;-53
2021/03/24 05:17:55;;;;;;;3.97;2.35;;;9.30;86.30;;;;;;5041443;28;20049;-50
2021/03/24 05:20:36;;;;;;;4.80;2.63;;;9.30;86.60;;;;;;5041382;28;20436;-49
2021/03/24 05:23:11;;;;;;;4.13;2.80;;;9.20;86.50;;;;;;5074988;28;20048;-49
2021/03/24 05:25:54;;;;;;;6.90;2.20;;;9.10;86.50;;;;;;5057791;28;20052;-54
2021/03/24 05:28:39;;;;;;;5.93;3.45;;;9.10;86.30;;;;;;5058105;28;20514;-53
2021/03/24 05:31:14;;;;;;;4.03;2.42;;;9.10;86.50;;;;;;5075572;28;20040;-50
2021/03/24 05:33:52;;;;;;;6.03;3.00;;;9.10;87.00;;;;;;5066244;28;20061;-52
2021/03/24 05:36:47;;;;;;;5.80;2.40;;;9.20;87.30;;;;;;5004422;28;20138;-52
2021/03/24 05:39:33;;;;;;;5.40;2.92;;;9.20;87.30;;;;;;5036052;28;20491;-53
2021/03/24 05:42:06;;;;;;;4.15;2.20;;;9.20;87.30;;;;;;5021369;28;20126;-53
2021/03/24 05:44:46;;;;;;;4.13;2.08;;;9.20;87.00;;;;;;5037845;28;20103;-53
2021/03/24 05:47:44;;;;;;;3.33;1.88;;;9.20;86.20;;;;;;5037595;28;20077;-52
2021/03/24 05:50:42;;;;;;;2.83;1.88;;;9.30;85.70;;;;;;5055512;28;20376;-53
2021/03/24 05:53:28;;;;;;;3.95;2.53;;;9.40;85.50;;;;;;5055138;28;20072;-51
2021/03/24 05:56:07;;;;;;;5.35;2.38;;;9.40;85.40;;;;;;5037507;28;20047;-53
2021/03/24 05:58:40;;;;;;;6.65;2.75;;;9.50;85.40;;;;;;5021683;28;20061;-52
2021/03/24 06:01:16;;;;;;;3.53;2.22;;;9.60;85.50;;;;;;5037408;28;20045;-52
2021/03/24 06:04:17;;;;;;;4.53;3.03;;;9.60;85.50;;;;;;5037579;28;20048;-52
2021/03/24 06:06:50;;;;;;;3.92;2.55;;;9.70;85.80;;;;;;5037245;28;20045;-51
2021/03/24 06:09:58;;;;;;;6.43;4.03;;;9.70;85.90;;;;;;5021199;28;20136;-51
2021/03/24 06:12:49;;;;;;;5.70;3.28;;;9.70;85.90;;;;;;5037079;28;20055;-53
2021/03/24 06:15:50;;;;;;;6.30;2.95;;;9.70;86.30;;;;;;5020702;28;20045;-51
2021/03/24 06:18:44;;;;;;;4.82;2.55;;;9.70;86.40;;;;;;5036968;28;20424;-54
2021/03/24 06:21:37;;;;;;;5.05;3.13;;;9.70;86.50;;;;;;5020333;28;20049;-53
2021/03/24 06:24:35;;;;;;;3.90;2.78;;;9.70;86.50;;;;;;5036927;28;20064;-50
2021/03/24 06:27:33;;;;;;;6.72;3.33;;;9.70;86.00;;;;;;5054684;28;20100;-53
2021/03/24 06:30:25;;;;;;;12.40;4.75;;;9.70;86.00;;;;;;5050934;28;20131;-52
2021/03/24 06:33:16;;;;;;;7.38;4.70;;;9.80;86.10;;;;;;5036657;28;20052;-52
2021/03/24 06:36:19;;;;;;;7.10;3.30;;;9.80;86.20;;;;;;5054309;28;20053;-51
2021/03/24 06:38:49;;;;;;;5.50;3.42;;;9.90;86.60;;;;;;5009167;28;20053;-53
2021/03/24 06:41:54;;;;;;;4.30;2.67;;;10.10;86.90;;;;;;5020606;28;20052;-53
2021/03/24 06:45:06;;;;;;;4.82;3.10;;;10.20;86.30;;;;;;5019831;28;20053;-50
2021/03/24 06:47:58;;;;;;;5.47;3.53;;;10.30;86.00;;;;;;5018497;28;20059;-54
2021/03/24 06:50:43;;;;;;;6.32;2.67;;;10.40;85.70;;;;;;5019802;28;20522;-53
2021/03/24 06:53:38;;;;;;;5.22;3.08;;;10.60;85.00;;;;;;5036559;28;20086;-53
2021/03/24 06:56:17;;;;;;;;;;;10.80;84.60;;;;;;5037262;28;20134;-49
2021/03/24 06:59:24;;;;;;;4.57;2.45;;;11.20;83.10;;;;;;5020252;28;19967;-50
2021/03/24 07:02:15;;;;;;;5.88;3.55;;;11.60;81.10;;;;;;5003911;28;20091;-51
2021/03/24 07:05:14;;;;;;;4.47;3.13;;;11.80;80.20;;;;;;5036297;28;20041;-50
2021/03/24 07:08:25;;;;;;;4.57;3.58;;;12.00;79.80;;;;;;5035972;28;20484;-53
2021/03/24 07:11:22;;;;;;;6.40;2.78;;;12.30;79.60;;;;;;5004227;28;20072;-50
2021/03/24 07:14:01;;;;;;;6.32;3.05;;;12.60;79.00;;;;;;5035664;28;20136;-50
2021/03/24 07:16:56;;;;;;;4.53;2.70;;;12.90;77.30;;;;;;5036147;28;20052;-51
2021/03/24 07:19:52;;;;;;;5.30;2.95;;;13.20;76.50;;;;;;5035966;28;20498;-51
2021/03/24 07:22:23;;;;;;;5.72;2.55;;;13.50;75.10;;;;;;5036135;28;20468;-53
2021/03/24 07:25:27;;;;;;;4.97;2.05;;;13.70;74.10;;;;;;5018461;28;20055;-51
2021/03/24 07:28:25;;;;;;;5.75;3.35;;;14.00;73.70;;;;;;5053705;28;20053;-49
2021/03/24 07:31:14;;;;;;;4.93;2.65;;;14.10;73.20;;;;;;5035763;28;20077;-53
2021/03/24 07:33:43;;;;;;;9.25;3.42;;;14.10;73.20;;;;;;5044785;28;20079;-50
2021/03/24 07:36:38;;;;;;;8.98;4.28;;;14.10;72.90;;;;;;5073583;28;20128;-51
2021/03/24 07:39:21;;;;;;;6.45;3.95;;;13.90;72.50;;;;;;5073324;28;20051;-53
2021/03/24 07:42:02;;;;;;;8.95;3.60;;;13.70;73.80;;;;;;5073528;28;20084;-53
2021/03/24 07:44:59;;;;;;;7.00;3.25;;;13.80;74.80;;;;;;5039518;28;20548;-52
2021/03/24 07:47:35;;;;;;;6.03;3.88;;;14.00;75.20;;;;;;5055573;28;20106;-52
2021/03/24 07:50:38;;;;;;;6.13;3.05;;;14.20;75.10;;;;;;5022555;28;20154;-52
2021/03/24 07:53:35;;;;;;;4.47;2.58;;;14.00;72.90;;;;;;5036615;28;20055;-53
2021/03/24 07:56:19;;;;;;;8.20;3.17;;;13.80;73.30;;;;;;5039711;28;20048;-53
2021/03/24 07:59:11;;;;;;;6.60;3.40;;;13.90;74.20;;;;;;5038847;28;20049;-50
2021/03/24 08:02:16;;;;;;;5.03;2.58;;;14.10;73.70;;;;;;5038995;28;20494;-54
2021/03/24 08:05:20;;;;;;;6.25;3.05;;;14.20;73.80;;;;;;5073299;28;20503;-51
2021/03/24 08:08:12;;;;;;;6.28;3.45;;;14.30;73.20;;;;;;5053067;28;20059;-53
2021/03/24 08:10:58;;;;;;;;;;;14.50;73.00;;;;;;5039899;28;20048;-53
2021/03/24 08:13:59;;;;;;;9.38;3.00;;;14.50;73.20;;;;;;5055626;28;19921;-54
2021/03/24 08:16:34;;;;;;;6.32;3.22;;;14.50;74.20;;;;;;5063635;28;20049;-53
2021/03/24 08:19:27;;;;;;;7.78;3.00;;;14.60;73.10;;;;;;5022627;28;20052;-52
2021/03/24 08:22:01;;;;;;;5.25;3.00;;;14.50;73.30;;;;;;5042514;28;20055;-51
2021/03/24 08:24:44;;;;;;;4.65;2.60;;;14.60;72.60;;;;;;5042935;28;20088;-51
2021/03/24 08:27:49;;;;;;;5.53;2.97;;;14.80;71.50;;;;;;5042417;28;20487;-51
2021/03/24 08:30:24;;;;;;;3.90;2.55;;;14.80;70.50;;;;;;5055760;28;20048;-53
2021/03/24 08:33:08;;;;;;;5.82;2.40;;;14.80;70.50;;;;;;5074638;28;20053;-54
2021/03/24 08:35:55;;;;;;;5.07;2.67;;;14.80;71.70;;;;;;5039029;28;20064;-53
2021/03/24 08:38:42;;;;;;;5.20;2.50;;;14.80;71.80;;;;;;5056529;28;20399;-53
2021/03/24 08:41:41;;;;;;;8.73;2.55;;;15.00;71.80;;;;;;5038678;28;20044;-54
2021/03/24 08:44:50;;;;;;;11.25;6.85;;;15.00;72.60;;;;;;5038846;28;20483;-52
2021/03/24 08:47:40;;;;;;;6.70;4.28;;;15.20;71.50;;;;;;5036843;28;20057;-53
2021/03/24 08:50:32;;;;;;;6.00;3.05;;;15.40;70.50;;;;;;5054393;28;20053;-55
2021/03/24 08:53:33;;;;;;;3.90;2.45;;;15.60;70.90;;;;;;5039191;28;20060;-54
2021/03/24 08:56:03;;;;;;;;;;;15.80;70.60;;;;;;5056703;28;20072;-52
2021/03/24 08:59:13;;;;;;;3.95;2.30;;;16.00;70.90;;;;;;5055966;28;19932;-51
2021/03/24 09:01:47;;;;;;;3.67;2.20;;;15.90;69.00;;;;;;5035017;28;20057;-54
2021/03/24 09:04:56;;;;;;;5.57;3.37;;;15.90;68.90;;;;;;5022503;28;20143;-53
2021/03/24 09:08:00;;;;;;;9.63;2.67;;;15.90;70.10;;;;;;4978337;28;20436;-53
2021/03/24 09:10:50;;;;;;;5.28;2.80;;;16.00;70.10;;;;;;4978019;28;20058;-52
2021/03/24 09:13:24;;;;;;;4.45;2.70;;;16.20;70.00;;;;;;4962085;28;20413;-52
2021/03/24 09:16:14;;;;;;;10.43;3.53;;;16.20;70.40;;;;;;4962420;28;20113;-53
2021/03/24 09:18:50;;;;;;;5.47;2.08;;;16.00;70.30;;;;;;4993928;28;20130;-52
2021/03/24 09:21:24;;;;;;;5.13;2.13;;;15.80;70.00;;;;;;4993917;28;20046;-50
2021/03/24 09:24:04;;;;;;;5.50;2.25;;;15.80;70.10;;;;;;4978265;28;20046;-54
2021/03/24 09:27:11;;;;;;;3.45;2.25;;;15.80;71.00;;;;;;4962292;28;20046;-52
2021/03/24 09:30:02;;;;;;;5.15;2.13;;;15.80;70.80;;;;;;4961417;28;20105;-49
2021/03/24 09:32:37;;;;;;;4.07;2.50;;;15.90;68.30;;;;;;4993629;28;20089;-49
2021/03/24 09:35:42;;;;;;;3.58;1.90;;;16.00;68.60;;;;;;4977851;28;20053;-50
2021/03/24 09:38:24;;;;;;;6.30;2.58;;;15.90;69.00;;;;;;5018876;28;20056;-52
2021/03/24 09:41:17;;;;;;;4.18;2.38;;;15.90;70.00;;;;;;5021999;28;20087;-50
2021/03/24 09:43:51;;;;;;;5.57;2.78;;;16.00;70.50;;;;;;5037698;28;20376;-51
2021/03/24 09:46:45;;;;;;;4.47;1.85;;;16.10;70.30;;;;;;5037035;28;20095;-54
2021/03/24 09:49:36;;;;;;;5.72;2.30;;;16.10;70.10;;;;;;5055290;28;20110;-53
2021/03/24 09:52:30;;;;;;;4.03;3.00;;;16.20;68.80;;;;;;5021455;28;20056;-52
2021/03/24 09:55:12;;;;;;;3.10;1.95;;;16.10;67.90;;;;;;5036950;28;20519;-54
2021/03/24 09:58:22;;;;;;;3.58;2.08;;;16.20;68.10;;;;;;5021949;28;20066;-50
2021/03/24 10:01:10;;;;;;;4.35;1.92;;;16.30;68.50;;;;;;5037179;28;20056;-54
2021/03/24 10:04:01;;;;;;;4.90;2.45;;;16.40;68.60;;;;;;5036299;28;20495;-51
2021/03/24 10:07:01;;;;;;;3.55;2.10;;;16.20;66.40;;;;;;5037507;28;20053;-54
2021/03/24 10:09:55;;;;;;;2.65;1.83;;;16.00;66.70;;;;;;5054157;28;20426;-53
2021/03/24 10:12:52;;;;;;;4.25;2.50;;;15.90;68.90;;;;;;5054396;28;20051;-51
2021/03/24 10:15:24;;;;;;;5.30;2.13;;;15.70;68.20;;;;;;5036500;28;20069;-57
2021/03/24 10:17:52;;;;;;;4.05;2.40;;;15.80;67.70;;;;;;5019988;28;20070;-50
2021/03/24 10:20:43;;;;;;;3.05;1.75;;;15.80;70.00;;;;;;5037395;28;20048;-53
2021/03/24 10:23:47;;;;;;;4.30;2.10;;;15.80;69.90;;;;;;5054339;28;20140;-54
2021/03/24 10:26:56;;;;;;;3.60;1.80;;;15.70;69.70;;;;;;5037502;28;20302;-53
2021/03/24 10:29:32;;;;;;;3.55;2.10;;;15.50;70.90;;;;;;5054102;28;20107;-50
2021/03/24 10:32:18;;;;;;;4.05;2.00;;;15.30;71.40;;;;;;5036886;28;20364;-55
2021/03/24 10:34:48;;;;;;;5.25;2.40;;;15.30;71.80;;;;;;5036949;28;20491;-53
2021/03/24 10:37:41;;;;;;;4.30;2.50;;;15.20;71.20;;;;;;5039685;28;20044;-50
2021/03/24 10:40:23;;;;;;;5.40;2.15;;;15.00;70.40;;;;;;5074107;28;20048;-50
2021/03/24 10:43:27;;;;;;;4.90;2.30;;;14.80;70.10;;;;;;5041138;28;20487;-50
2021/03/24 10:46:13;;;;;;;4.00;2.35;;;15.00;71.00;;;;;;5057938;28;20063;-52
2021/03/24 10:49:22;;;;;;;4.22;2.25;;;15.00;70.50;;;;;;5058083;28;20106;-52
2021/03/24 10:52:09;;;;;;;3.80;2.20;;;14.70;69.50;;;;;;5055889;28;20135;-53
2021/03/24 10:54:40;;;;;;;5.30;3.00;;;14.80;70.10;;;;;;5073539;28;20048;-53
2021/03/24 10:57:35;;;;;;;5.15;2.65;;;14.60;71.30;;;;;;5055598;28;20052;-50
2021/03/24 11:00:40;;;;;;;2.67;1.88;;;14.60;72.00;;;;;;5073811;28;20045;-51
2021/03/24 11:03:37;;;;;;;3.58;1.55;;;14.60;71.40;;;;;;5054771;28;20055;-51
2021/03/24 11:06:17;;;;;;;5.22;2.10;;;14.50;71.70;;;;;;5056264;28;20049;-52
2021/03/24 11:09:09;;;;;;;3.10;2.00;;;14.30;71.00;;;;;;5072891;28;20044;-53
2021/03/24 11:11:52;;;;;;;5.15;1.90;;;14.10;71.50;;;;;;5056467;28;20045;-49
2021/03/24 11:14:39;;;;;;;4.57;2.05;;;14.10;72.30;;;;;;5055286;28;20494;-52
2021/03/24 11:17:20;;;;;;;6.28;1.85;;;14.10;72.50;;;;;;5073432;28;20411;-50
2021/03/24 11:20:07;;;;;;;3.70;1.90;;;14.10;73.10;;;;;;5073481;28;20351;-52
2021/03/24 11:22:54;;;;;;;7.05;3.05;;;14.00;74.00;;;;;;5073232;28;20044;-49
2021/03/24 11:25:50;;;;;;;3.08;1.80;;;14.00;74.60;;;;;;5038803;28;20406;-50
2021/03/24 11:28:26;;;;;;;3.40;1.85;;;14.00;73.80;;;;;;5073170;28;20048;-50
2021/03/24 11:31:23;;;;;;;3.55;2.28;;;14.00;73.30;;;;;;5055080;28;20044;-52
2021/03/24 11:34:13;;;;;;;5.43;2.50;;;14.10;73.10;;;;;;5062487;28;20049;-50
2021/03/24 11:37:09;;;;;;;9.00;4.35;;;14.30;73.60;;;;;;5034999;28;20071;-53
2021/03/24 11:39:44;;;;;;;;;;;14.50;74.20;;;;;;5049006;28;20442;-52
2021/03/24 11:42:22;;;;;;;;;;;14.50;73.90;;;;;;5004529;28;19920;-53
2021/03/24 11:44:53;;;;;;;6.05;2.63;;;14.60;74.30;;;;;;5019224;28;20019;-48
2021/03/24 11:48:00;;;;;;;4.80;2.50;;;14.90;74.10;;;;;;5035788;28;20057;-46
2021/03/24 11:51:09;;;;;;;12.80;5.20;;;15.30;73.30;;;;;;5035235;28;20072;-49
2021/03/24 11:54:02;;;;;;;4.55;2.17;;;15.60;75.50;;;;;;5053560;28;20438;-51
2021/03/24 11:57:03;;;;;;;3.05;1.52;;;15.40;73.20;;;;;;5056840;28;20049;-48
2021/03/24 12:00:05;;;;;;;2.80;1.48;;;15.20;72.50;;;;;;5039209;28;20041;-50
2021/03/24 12:02:45;;;;;;;3.45;1.92;;;14.80;72.90;;;;;;5056877;28;20483;-51
2021/03/24 12:05:21;;;;;;;2.65;1.67;;;14.80;73.60;;;;;;5039464;28;20351;-49
2021/03/24 12:08:06;;;;;;;3.70;1.83;;;14.90;73.00;;;;;;5039323;28;20136;-54
2021/03/24 12:10:41;;;;;;;;;;;14.80;72.20;;;;;;5057331;28;20072;-56
2021/03/24 12:13:19;;;;;;;3.78;2.03;;;14.60;71.60;;;;;;5056916;28;19967;-51
2021/03/24 12:16:10;;;;;;;3.50;2.05;;;14.60;71.50;;;;;;5056925;28;20487;-50
2021/03/24 12:18:54;;;;;;;4.85;1.85;;;14.70;72.30;;;;;;5022891;28;20406;-52
2021/03/24 12:21:36;;;;;;;8.15;2.50;;;14.80;72.40;;;;;;5005964;28;20049;-51
2021/03/24 12:24:26;;;;;;;6.05;3.33;;;14.80;71.50;;;;;;5057103;28;20049;-48
2021/03/24 12:27:28;;;;;;;3.47;2.40;;;14.80;72.20;;;;;;5057047;28;20127;-51
2021/03/24 12:30:20;;;;;;;4.18;2.80;;;14.90;72.00;;;;;;5055703;28;20083;-48
2021/03/24 12:33:10;;;;;;;6.65;3.08;;;15.00;71.60;;;;;;5022415;28;20068;-49
2021/03/24 12:35:46;;;;;;;6.38;4.30;;;15.20;72.90;;;;;;5038655;28;20132;-49
2021/03/24 12:38:22;;;;;;;10.80;4.55;;;15.30;72.30;;;;;;5038158;28;20120;-48
2021/03/24 12:40:58;;;;;;;13.15;7.55;;;15.40;72.90;;;;;;5056202;28;20457;-50
2021/03/24 12:43:34;;;;;;;;;;;15.40;73.30;;;;;;5057414;28;20056;-50
2021/03/24 12:46:21;;;;;;;13.50;6.30;;;15.40;71.10;;;;;;5056478;28;19920;-48
2021/03/24 12:48:56;;;;;;;17.48;6.20;;;15.50;73.70;;;;;;5022309;28;20049;-48
2021/03/24 12:51:51;;;;;;;8.05;4.97;;;15.70;75.10;;;;;;5056597;28;20069;-50
2021/03/24 12:54:24;;;;;;;6.00;3.30;;;15.90;73.60;;;;;;5056465;28;20053;-49
2021/03/24 12:57:39;;;;;;;3.88;2.50;;;16.00;71.30;;;;;;5012320;28;20377;-50
2021/03/24 13:00:27;;;;;;;3.35;2.15;;;16.00;68.80;;;;;;5038579;28;20053;-50
2021/03/24 13:03:20;;;;;;;5.28;3.33;;;16.00;69.30;;;;;;5021806;28;20045;-49
2021/03/24 13:06:03;;;;;;;4.88;2.50;;;15.90;68.50;;;;;;5037652;28;20041;-51
2021/03/24 13:08:53;;;;;;;5.38;3.30;;;15.70;68.80;;;;;;5022127;28;20067;-50
2021/03/24 13:11:39;;;;;;;5.28;3.53;;;15.50;70.60;;;;;;5038083;28;20045;-52
2021/03/24 13:14:39;;;;;;;5.07;2.42;;;15.30;70.50;;;;;;5022318;28;20403;-51
2021/03/24 13:17:14;;;;;;;4.35;2.33;;;15.10;70.40;;;;;;5037942;28;20487;-50
2021/03/24 13:20:15;;;;;;;4.30;2.53;;;15.00;70.90;;;;;;5005459;28;20049;-50
2021/03/24 13:23:23;;;;;;;3.53;2.13;;;15.10;72.40;;;;;;5038117;28;20041;-50
2021/03/24 13:26:00;;;;;;;3.67;2.25;;;15.10;70.70;;;;;;5030782;28;20045;-50
2021/03/24 13:28:56;;;;;;;3.33;1.88;;;15.10;71.90;;;;;;5037749;28;20049;-50
2021/03/24 13:32:10;;;;;;;4.30;2.35;;;15.10;73.20;;;;;;5054974;28;20052;-49
2021/03/24 13:35:17;;;;;;;3.33;1.70;;;15.10;73.30;;;;;;5013425;28;20046;-49
2021/03/24 13:37:48;;;;;;;2.63;1.52;;;15.10;72.90;;;;;;5049019;28;20055;-50
2021/03/24 13:40:29;;;;;;;4.82;1.40;;;15.20;73.20;;;;;;5037961;28;20072;-50
2021/03/24 13:43:01;;;;;;;2.53;1.63;;;15.10;72.60;;;;;;5037830;28;20049;-50
2021/03/24 13:45:36;;;;;;;3.22;1.60;;;15.10;73.30;;;;;;5038216;28;20434;-50
2021/03/24 13:48:33;;;;;;;3.00;1.88;;;15.00;73.50;;;;;;5037202;28;20399;-50
2021/03/24 13:51:25;;;;;;;2.83;1.80;;;15.00;73.50;;;;;;5037705;28;20053;-49
2021/03/24 13:54:37;;;;;;;2.92;2.08;;;15.00;73.30;;;;;;5037405;28;20041;-52
2021/03/24 13:57:35;;;;;;;4.45;2.22;;;15.10;74.10;;;;;;5036965;28;20056;-49
2021/03/24 14:00:59;;;;;;;3.70;1.70;;;15.10;74.20;;;;;;5001536;28;20446;-52
2021/03/24 14:04:03;;;;;;;5.93;2.33;;;15.10;73.40;;;;;;4980466;28;20053;-51
2021/03/24 14:06:59;;;;;;;2.58;1.73;;;15.00;72.30;;;;;;5054933;28;20087;-50
2021/03/24 14:09:41;;;;;;;2.30;1.73;;;14.90;73.30;;;;;;5037137;28;20455;-51
2021/03/24 14:12:33;;;;;;;4.63;2.22;;;14.80;73.90;;;;;;5054908;28;20095;-50
2021/03/24 14:15:22;;;;;;;2.53;1.45;;;14.80;74.70;;;;;;5037212;28;20053;-52
2021/03/24 14:18:09;;;;;;;6.22;2.05;;;14.70;73.50;;;;;;5037370;28;20049;-53